Wortham, Mississippi
Current Conditions -  °F | °C
As of 12:53 PM on Sunday 23 Nov 2014 (Local Time) from KGPT Reporting Station
Broken Clouds Broken Clouds  
Wind Chill: 64°   Ceiling: 1700
Heat Index: 64°   Visibility: 10mi
Dew Point: 60°   Wind: 9mph
Humidity: 87%   Direction: 220°SW
Pressure: 29.68"   Gusts: 22mph
Location:  30.603°N, 89.0932°W
Report Text: KGPT 231853Z 22008G19KT 10SM BKN017 18/16 A2968 RMK AO2 SLP049 T01780156
Loading
Personal Weather Stations






























Interactive Weather Map New forecast layout! Learn more

10-Day Weather Forecast

Advertisements
Track Severe Weather on mobile